EHDL

Deelen Air Base Airport

Arnhem, The Netherlands
METAR EHDL 251855Z AUTO 14003KT 9999 NCD 07/05 Q1037 BLU
Observed Flight Rules
Sep-25 @ 18:55 UTC (8 minutes ago) Visual Flight Rules
Wind Visibility Clouds
140° at 3 knots 10,000+ meters
  • Clear skies
Temperatures Readings
Current 7°C / 45°F
Dewpoint 5°C / 41°F
Humidity 87%
Altimeter 30.62" Hg
Pressure 1037 hPa
Elevation 52
METAR EHDL 251855Z AUTO 14003KT 9999 NCD 07/05 Q1037 BLU
Observed Flight Rules
Sep-25 @ 18:55 UTC
(8 minutes ago)
VFR
Wind Visibility
140° at 3 knots 10,000+ meters
Clouds
  • Clear skies
Temperature Dewpoint
7°C / 45°F 5°C / 41°F
Humidity Altimeter Pressure
87% 30.62" Hg 1037 hPa